Time;durP1;ratioP1;P1;durP2;ratioP2;P2;SDS_P1;SDS_P2;PMS_P1;PMS_P2;Temp;Humidity;BMP_temperature;BMP_pressure;BME280_temperature;BME280_humidity;BME280_pressure;Samples;Min_cycle;Max_cycle;Signal;HPM_P1;HPM_P2
2022/11/07 00:01:11;;;;;;;7.07;4.68;;;;;;;6.88;89.21;98068.25;4158898;28;20046;-72
2022/11/07 00:03:11;;;;;;;6.55;4.38;;;;;;;6.92;89.08;98068.31;4158485;28;20044;-72
2022/11/07 00:05:11;;;;;;;7.43;4.20;;;;;;;6.88;89.14;98061.97;4158467;28;20120;-72
2022/11/07 00:07:12;;;;;;;6.68;4.60;;;;;;;6.89;89.09;98077.28;4160216;28;20042;-72
2022/11/07 00:09:12;;;;;;;6.45;4.38;;;;;;;6.89;88.92;98058.03;4158489;28;20071;-72
2022/11/07 00:11:12;;;;;;;7.13;4.25;;;;;;;6.91;89.23;98069.47;4157670;28;20588;-72
2022/11/07 00:13:13;;;;;;;6.97;4.70;;;;;;;6.86;89.52;98070.53;4155266;28;20072;-72
2022/11/07 00:15:13;;;;;;;6.85;4.20;;;;;;;6.84;89.77;98069.31;4160330;28;20359;-72
2022/11/07 00:17:13;;;;;;;7.15;4.53;;;;;;;6.78;89.89;98076.28;4158129;28;20512;-72
2022/11/07 00:19:16;;;;;;;5.75;3.85;;;;;;;6.83;90.35;98079.53;4159473;28;20053;-72
2022/11/07 00:21:17;;;;;;;9.38;4.32;;;;;;;6.82;90.62;98075.19;4158258;28;20049;-72
2022/11/07 00:23:17;;;;;;;6.15;3.83;;;;;;;6.83;90.82;98073.25;4155281;28;20311;-72
2022/11/07 00:25:17;;;;;;;6.55;4.22;;;;;;;6.80;90.73;98058.28;4159428;28;20042;-72
2022/11/07 00:27:18;;;;;;;5.30;3.30;;;;;;;6.86;91.18;98072.50;4155763;28;20325;-72
2022/11/07 00:29:20;;;;;;;6.43;3.40;;;;;;;6.86;91.36;98067.78;4160337;28;20049;-72
2022/11/07 00:31:20;;;;;;;8.90;4.27;;;;;;;6.91;90.52;98083.22;4157268;28;20754;-72
2022/11/07 00:33:20;;;;;;;6.40;4.03;;;;;;;6.90;91.00;98074.19;4154236;28;20382;-72
2022/11/07 00:35:20;;;;;;;5.75;3.60;;;;;;;7.02;90.84;98076.75;4158366;28;20076;-72
2022/11/07 00:37:21;;;;;;;4.88;3.30;;;;;;;7.09;90.13;98075.31;4158792;28;20128;-72
2022/11/07 00:39:21;;;;;;;6.10;3.70;;;;;;;7.10;90.10;98079.63;4157655;28;20049;-72
2022/11/07 00:41:22;;;;;;;6.95;4.03;;;;;;;7.09;90.32;98087.09;4160842;28;20475;-72
2022/11/07 00:43:23;;;;;;;6.18;4.03;;;;;;;7.14;90.27;98092.31;4158252;28;20132;-72
2022/11/07 00:45:24;;;;;;;5.45;3.97;;;;;;;7.12;90.48;98093.84;4158614;28;20056;-72
2022/11/07 00:47:24;;;;;;;6.45;3.85;;;;;;;7.08;90.05;98096.50;4158510;28;20037;-72
2022/11/07 00:49:24;;;;;;;5.70;3.75;;;;;;;7.14;90.33;98097.81;4157431;28;20096;-72
2022/11/07 00:51:26;;;;;;;7.63;4.25;;;;;;;7.23;89.55;98101.13;4158151;28;20138;-72
2022/11/07 00:53:27;;;;;;;6.07;3.67;;;;;;;7.22;89.85;98113.31;4160597;28;20057;-72
2022/11/07 00:55:27;;;;;;;7.50;4.38;;;;;;;7.22;90.02;98129.03;4156640;28;20409;-72
2022/11/07 00:57:27;;;;;;;6.22;3.95;;;;;;;7.22;89.82;98135.31;4159399;28;20529;-72
2022/11/07 00:59:28;;;;;;;6.20;3.55;;;;;;;7.13;90.63;98137.50;4159012;28;20088;-72
2022/11/07 01:01:30;;;;;;;6.95;4.45;;;;;;;7.04;90.76;98150.69;4157310;28;20201;-72
2022/11/07 01:06:00;;;;;;;6.45;4.10;;;;;;;7.03;90.95;98146.31;4155258;28;20142;-72
2022/11/07 01:08:00;;;;;;;7.03;3.90;;;;;;;7.02;91.11;98155.72;4155463;28;20409;-72
2022/11/07 01:10:02;;;;;;;6.88;4.28;;;;;;;7.00;91.50;98149.81;4158789;28;20045;-72
2022/11/07 01:12:02;;;;;;;7.53;3.92;;;;;;;6.96;91.26;98148.94;4154192;28;20065;-72
2022/11/07 01:14:03;;;;;;;5.82;4.05;;;;;;;6.94;91.49;98145.75;4156348;28;20028;-72
2022/11/07 01:16:11;;;;;;;7.03;4.07;;;;;;;7.01;91.20;98157.69;4184050;27;20379;-72
2022/11/07 01:18:12;;;;;;;7.30;4.53;;;;;;;6.96;91.45;98147.00;4183163;28;20052;-72
2022/11/07 01:20:12;;;;;;;6.72;3.90;;;;;;;6.99;91.69;98159.22;4182809;28;20492;-72
2022/11/07 01:22:13;;;;;;;7.22;3.63;;;;;;;7.04;91.60;98156.19;4183654;28;20058;-72
2022/11/07 01:24:14;;;;;;;7.68;4.25;;;;;;;6.97;92.03;98161.53;4181842;28;20025;-72
2022/11/07 01:26:15;;;;;;;8.82;4.20;;;;;;;6.96;92.30;98157.19;4182803;28;20032;-72
2022/11/07 01:28:15;;;;;;;6.28;4.00;;;;;;;6.94;92.17;98165.00;4184063;28;20408;-72
2022/11/07 01:30:16;;;;;;;6.25;4.38;;;;;;;6.91;92.68;98154.72;4183166;28;20029;-72
2022/11/07 01:32:17;;;;;;;5.97;3.42;;;;;;;6.87;93.36;98160.16;4183126;28;20110;-72
2022/11/07 01:34:17;;;;;;;5.97;3.90;;;;;;;6.81;93.50;98153.34;4182675;28;20037;-72
2022/11/07 01:36:18;;;;;;;5.38;3.83;;;;;;;6.79;93.52;98168.63;4182548;28;20025;-72
2022/11/07 01:38:18;;;;;;;5.07;3.67;;;;;;;6.82;93.61;98165.94;4182658;28;20025;-72
2022/11/07 01:40:19;;;;;;;5.00;3.47;;;;;;;6.85;93.65;98165.22;4182973;28;20108;-72
2022/11/07 01:42:20;;;;;;;6.20;3.85;;;;;;;6.81;93.91;98177.31;4183133;28;20028;-72
2022/11/07 01:44:20;;;;;;;5.10;3.58;;;;;;;6.81;94.26;98177.31;4182615;28;23003;-72
2022/11/07 01:46:26;;;;;;;6.35;3.80;;;;;;;6.84;94.19;98187.56;4183390;28;20510;-72
2022/11/07 01:48:26;;;;;;;4.75;3.50;;;;;;;6.80;94.44;98193.00;4183221;28;20483;-72
2022/11/07 01:50:27;;;;;;;4.95;3.67;;;;;;;6.81;94.58;98191.06;4182236;28;20072;-72
2022/11/07 01:52:34;;;;;;;6.82;3.65;;;;;;;6.76;94.66;98197.63;4172533;28;20041;-72
2022/11/07 01:54:44;;;;;;;5.30;3.22;;;;;;;6.76;94.90;98189.38;4155237;28;20046;-72
2022/11/07 01:56:46;;;;;;;6.63;4.07;;;;;;;6.79;94.83;98193.38;4151438;28;20386;-72
2022/11/07 01:58:46;;;;;;;4.80;3.70;;;;;;;6.80;94.79;98198.50;4155944;28;20477;-72
2022/11/07 02:00:46;;;;;;;6.13;3.85;;;;;;;6.82;95.09;98207.19;4157642;28;20049;-72
2022/11/07 02:02:51;;;;;;;6.55;3.83;;;;;;;6.85;95.24;98202.91;4155866;28;20042;-72
2022/11/07 02:04:56;;;;;;;5.95;3.65;;;;;;;6.88;94.80;98205.75;4155408;28;20548;-72
2022/11/07 02:07:04;;;;;;;4.60;3.35;;;;;;;6.98;94.86;98207.13;4155130;28;20843;-72
2022/11/07 02:09:05;;;;;;;5.32;3.60;;;;;;;7.01;94.66;98201.69;4152148;28;20068;-72
2022/11/07 02:11:11;;;;;;;6.65;3.95;;;;;;;7.04;94.36;98200.19;4152248;28;20045;-72
2022/11/07 02:13:18;;;;;;;8.75;3.83;;;;;;;7.06;94.60;98205.34;4153276;28;20072;-72
2022/11/07 02:15:29;;;;;;;5.75;3.22;;;;;;;7.13;94.28;98213.75;4163352;28;20045;-72
2022/11/07 02:17:29;;;;;;;5.78;3.63;;;;;;;7.13;94.19;98220.03;4168682;28;20099;-72
2022/11/07 02:19:40;;;;;;;6.20;3.90;;;;;;;7.15;94.16;98219.66;4166917;28;20091;-72
2022/11/07 02:22:10;;;;;;;5.88;3.55;;;;;;;7.12;94.49;98209.41;4168722;28;20048;-72
2022/11/07 02:24:25;;;;;;;6.55;3.60;;;;;;;7.14;94.45;98209.81;4167355;28;20044;-72
2022/11/07 02:26:26;;;;;;;5.72;3.80;;;;;;;7.12;94.17;98215.69;4166574;28;21019;-72
2022/11/07 02:28:28;;;;;;;5.20;3.45;;;;;;;7.04;94.77;98225.75;4157653;28;20108;-72
2022/11/07 02:30:32;;;;;;;6.88;3.78;;;;;;;7.08;94.92;98205.75;4158764;28;20504;-72
2022/11/07 02:32:33;;;;;;;6.55;3.72;;;;;;;7.03;95.01;98215.91;4161985;28;20060;-72
2022/11/07 02:34:33;;;;;;;8.23;4.20;;;;;;;7.07;95.09;98206.91;4156677;28;20440;-72
2022/11/07 02:36:34;;;;;;;3.97;3.42;;;;;;;7.04;95.35;98205.69;4157418;28;20037;-72
2022/11/07 02:38:36;;;;;;;5.93;3.60;;;;;;;7.08;95.55;98212.06;4163432;28;20389;-72
2022/11/07 02:40:42;;;;;;;6.07;3.85;;;;;;;7.06;95.25;98211.63;4160246;28;20206;-72
2022/11/07 02:42:42;;;;;;;6.35;3.70;;;;;;;7.17;95.13;98228.34;4159826;28;20049;-72
2022/11/07 02:44:43;;;;;;;5.60;3.47;;;;;;;7.20;94.37;98219.38;4157475;28;20045;-72
2022/11/07 02:46:44;;;;;;;5.78;3.60;;;;;;;7.15;94.73;98234.22;4159300;28;20033;-72
2022/11/07 02:48:47;;;;;;;4.40;3.15;;;;;;;7.13;95.07;98220.03;4155713;28;20037;-72
2022/11/07 02:50:47;;;;;;;5.53;3.22;;;;;;;7.11;95.18;98210.53;4157051;28;20095;-72
2022/11/07 02:52:48;;;;;;;4.13;3.53;;;;;;;7.05;94.92;98212.78;4156311;28;20167;-72
2022/11/07 02:54:48;;;;;;;5.22;3.38;;;;;;;7.02;95.40;98213.50;4162849;28;20044;-72
2022/11/07 02:56:48;;;;;;;4.95;3.65;;;;;;;6.99;95.52;98216.97;4155794;28;20243;-72
2022/11/07 02:58:51;;;;;;;6.40;3.53;;;;;;;7.01;95.35;98215.44;4156755;28;20045;-72
2022/11/07 03:00:51;;;;;;;5.47;3.35;;;;;;;7.00;95.78;98207.56;4157382;28;20737;-72
2022/11/07 03:02:52;;;;;;;5.57;3.20;;;;;;;7.05;96.37;98210.03;4154804;28;20034;-72
2022/11/07 03:04:52;;;;;;;4.85;3.25;;;;;;;7.12;95.93;98212.94;4155515;28;20075;-72
2022/11/07 03:06:52;;;;;;;6.72;4.05;;;;;;;7.13;95.47;98205.47;4160056;28;20045;-72
2022/11/07 03:08:53;;;;;;;6.20;3.80;;;;;;;7.21;95.92;98202.50;4157247;28;20037;-72
2022/11/07 03:10:53;;;;;;;4.85;3.10;;;;;;;7.24;95.96;98206.50;4157105;28;20648;-72
2022/11/07 03:12:53;;;;;;;6.68;3.22;;;;;;;7.26;93.94;98198.66;4155772;28;20108;-72
2022/11/07 03:14:54;;;;;;;4.47;3.35;;;;;;;7.29;94.43;98198.75;4156411;28;20061;-72
2022/11/07 03:16:54;;;;;;;4.85;3.20;;;;;;;7.25;94.31;98192.34;4155389;28;20037;-72
2022/11/07 03:18:54;;;;;;;4.75;3.10;;;;;;;7.32;93.56;98206.25;4156786;28;20057;-72
2022/11/07 03:20:54;;;;;;;5.65;3.63;;;;;;;7.36;94.89;98211.03;4157316;28;20041;-72
2022/11/07 03:22:55;;;;;;;4.20;2.83;;;;;;;7.35;94.13;98207.47;4155308;28;20457;-72
2022/11/07 03:24:55;;;;;;;5.22;3.42;;;;;;;7.39;94.94;98216.63;4157448;28;20124;-72
2022/11/07 03:26:55;;;;;;;6.38;3.00;;;;;;;7.45;94.79;98219.88;4156670;28;20563;-72
2022/11/07 03:28:58;;;;;;;4.45;2.72;;;;;;;7.49;94.71;98221.53;4156304;28;20090;-72
2022/11/07 03:31:02;;;;;;;4.82;2.65;;;;;;;7.52;93.75;98215.28;4161603;28;20397;-72
2022/11/07 03:33:02;;;;;;;4.22;2.95;;;;;;;7.56;93.86;98226.38;4157511;28;20053;-72
2022/11/07 03:35:03;;;;;;;4.18;2.38;;;;;;;7.57;94.48;98233.47;4155673;28;20041;-72
2022/11/07 03:37:04;;;;;;;3.00;2.47;;;;;;;7.54;94.01;98218.50;4156776;28;20355;-72
2022/11/07 03:39:04;;;;;;;3.95;2.95;;;;;;;7.58;93.92;98224.06;4155657;28;20076;-72
2022/11/07 03:41:05;;;;;;;4.20;2.80;;;;;;;7.60;94.08;98211.50;4156860;28;20072;-72
2022/11/07 03:43:05;;;;;;;2.95;2.22;;;;;;;7.63;93.94;98207.25;4157829;28;20048;-73
2022/11/07 03:45:06;;;;;;;4.00;2.45;;;;;;;7.75;93.73;98211.78;4159360;28;20053;-72
2022/11/07 03:47:07;;;;;;;4.05;2.65;;;;;;;7.75;93.42;98217.28;4155514;28;20183;-72
2022/11/07 03:49:07;;;;;;;4.40;2.33;;;;;;;7.74;94.10;98227.50;4155280;28;20087;-72
2022/11/07 03:51:09;;;;;;;4.15;2.30;;;;;;;7.77;94.33;98221.25;4157093;28;20041;-72
2022/11/07 03:53:09;;;;;;;3.30;2.47;;;;;;;7.82;94.04;98226.50;4154676;28;20073;-72
2022/11/07 03:55:10;;;;;;;3.90;2.47;;;;;;;7.92;93.09;98232.56;4157864;28;20509;-72
2022/11/07 03:57:11;;;;;;;3.00;2.45;;;;;;;7.99;92.63;98232.69;4159381;28;20466;-72
2022/11/07 03:59:11;;;;;;;3.65;2.20;;;;;;;8.01;92.97;98225.63;4158500;28;20076;-72
2022/11/07 04:01:12;;;;;;;3.38;2.10;;;;;;;8.03;93.08;98217.03;4161990;28;20049;-72
2022/11/07 04:03:12;;;;;;;4.60;2.50;;;;;;;8.01;92.96;98217.38;4154108;28;20497;-72
2022/11/07 04:05:12;;;;;;;2.67;2.10;;;;;;;8.06;93.37;98228.09;4157317;28;20050;-72
2022/11/07 04:07:13;;;;;;;4.38;2.30;;;;;;;8.01;93.26;98224.84;4157717;28;20083;-72
2022/11/07 04:09:13;;;;;;;3.03;2.20;;;;;;;7.93;93.35;98218.41;4156095;28;20033;-72
2022/11/07 04:17:17;;;;;;;4.00;2.35;;;;;;;7.92;93.81;98218.78;4158106;28;20053;-72
2022/11/07 04:18:32;;;;;;;2.97;2.45;;;;;;;7.65;94.65;98234.41;4102643;28;20086;-73
2022/11/07 04:20:32;;;;;;;2.72;2.10;;;;;;;7.62;95.30;98237.91;4102032;28;20086;-73
2022/11/07 04:22:33;;;;;;;3.72;2.53;;;;;;;7.57;95.68;98230.72;4102165;28;20570;-72
2022/11/07 04:24:34;;;;;;;4.47;2.40;;;;;;;7.55;95.83;98238.56;4171819;28;20300;-73
2022/11/07 04:28:59;;;;;;;3.63;2.17;;;;;;;7.42;96.26;98237.91;4170719;28;20462;-73
2022/11/07 04:30:59;;;;;;;3.55;2.00;;;;;;;7.42;96.37;98237.91;4174566;28;20041;-73
2022/11/07 04:33:01;;;;;;;3.05;2.13;;;;;;;7.41;96.86;98241.81;4173961;28;20579;-72
2022/11/07 04:35:02;;;;;;;3.95;2.40;;;;;;;7.44;97.26;98243.84;4178472;28;20052;-72
2022/11/07 04:37:02;;;;;;;2.70;2.03;;;;;;;7.45;97.15;98250.16;4172250;28;20482;-72
2022/11/07 04:39:02;;;;;;;3.17;2.33;;;;;;;7.43;97.12;98247.75;4172962;28;20041;-72
2022/11/07 04:41:03;;;;;;;2.72;2.15;;;;;;;7.42;97.02;98243.41;4172338;28;20504;-72
2022/11/07 04:43:07;;;;;;;4.13;2.10;;;;;;;7.44;97.33;98254.06;4171711;28;20456;-73
2022/11/07 04:45:09;;;;;;;2.75;1.90;;;;;;;7.45;96.62;98266.69;4173474;28;20221;-73
2022/11/07 04:47:18;;;;;;;2.63;2.03;;;;;;;7.44;96.65;98260.34;4176013;28;20056;-73
2022/11/07 04:49:18;;;;;;;4.05;2.20;;;;;;;7.46;96.84;98255.31;4171004;28;20044;-72
2022/11/07 04:51:21;;;;;;;2.70;1.85;;;;;;;7.48;96.38;98257.69;4172280;28;20045;-72
2022/11/07 04:53:21;;;;;;;4.03;2.60;;;;;;;7.52;97.09;98251.06;4172805;28;20052;-73
2022/11/07 04:55:25;;;;;;;3.92;2.13;;;;;;;7.44;95.88;98252.09;4171010;28;20033;-72
2022/11/07 04:57:25;;;;;;;3.03;2.08;;;;;;;7.41;95.50;98263.84;4173047;28;20045;-72
2022/11/07 04:59:25;;;;;;;3.08;2.45;;;;;;;7.32;96.11;98255.81;4172145;28;20539;-73
2022/11/07 05:01:29;;;;;;;2.70;1.98;;;;;;;7.32;96.33;98271.53;4173432;28;20547;-72
2022/11/07 05:03:29;;;;;;;3.83;2.70;;;;;;;7.30;96.95;98268.34;4171860;28;20439;-72
2022/11/07 05:05:29;;;;;;;3.75;2.05;;;;;;;7.28;97.32;98268.72;4170985;28;20037;-73
2022/11/07 05:07:30;;;;;;;2.50;2.00;;;;;;;7.26;97.24;98267.44;4172285;28;20694;-72
2022/11/07 05:09:30;;;;;;;4.25;1.83;;;;;;;7.23;97.91;98276.44;4175858;28;20057;-73
2022/11/07 05:11:46;;;;;;;3.92;2.20;;;;;;;7.27;97.96;98272.59;4172447;28;20040;-72
2022/11/07 05:13:46;;;;;;;3.35;1.85;;;;;;;7.29;97.22;98284.06;4171396;28;20049;-72
2022/11/07 05:15:48;;;;;;;9.02;2.75;;;;;;;7.34;97.36;98277.44;4171497;28;20056;-72
2022/11/07 05:17:49;;;;;;;2.95;2.15;;;;;;;7.36;97.35;98271.59;4170389;28;20041;-72
2022/11/07 05:19:49;;;;;;;4.70;2.03;;;;;;;7.39;96.82;98273.63;4174123;28;20641;-72
2022/11/07 05:23:10;;;;;;;3.08;2.15;;;;;;;7.40;97.28;98277.97;4175505;28;20691;-72
2022/11/07 05:24:11;;;;;;;2.45;1.70;;;;;;;7.44;97.73;98281.59;4174966;28;20071;-73
2022/11/07 05:26:12;;;;;;;2.78;2.00;;;;;;;7.50;97.93;98280.13;4170823;28;20432;-73
2022/11/07 05:28:20;;;;;;;2.75;2.17;;;;;;;7.47;96.89;98283.63;4172102;28;20052;-72
2022/11/07 05:30:20;;;;;;;3.20;2.40;;;;;;;7.43;97.11;98285.50;4175605;28;20032;-72
2022/11/07 05:32:21;;;;;;;3.78;2.70;;;;;;;7.43;97.58;98282.75;4173333;28;20396;-73
2022/11/07 05:34:21;;;;;;;4.53;2.00;;;;;;;7.40;97.83;98288.97;4169908;28;20043;-72
2022/11/07 05:36:23;;;;;;;3.15;2.20;;;;;;;7.45;98.63;98292.25;4171655;28;20216;-72
2022/11/07 05:38:23;;;;;;;2.67;1.93;;;;;;;7.47;98.42;98284.44;4172076;28;20037;-72
2022/11/07 05:40:23;;;;;;;9.05;4.00;;;;;;;7.50;98.24;98277.38;4173433;28;20917;-72
2022/11/07 05:42:24;;;;;;;2.97;1.75;;;;;;;7.53;98.31;98282.16;4173806;28;20037;-72
2022/11/07 05:44:24;;;;;;;2.83;2.28;;;;;;;7.53;97.82;98291.25;4175254;28;20337;-73
2022/11/07 05:46:24;;;;;;;3.38;1.90;;;;;;;7.52;98.00;98272.31;4171231;28;20201;-72
2022/11/07 05:48:25;;;;;;;2.92;2.28;;;;;;;7.57;98.62;98286.59;4170568;28;20056;-72
2022/11/07 05:50:26;;;;;;;2.67;2.03;;;;;;;7.63;97.20;98289.84;4170828;28;20049;-73
2022/11/07 05:52:26;;;;;;;3.30;2.30;;;;;;;7.68;97.13;98283.25;4172128;28;20148;-72
2022/11/07 05:54:27;;;;;;;5.03;1.90;;;;;;;7.70;97.38;98287.25;4173245;28;20128;-72
2022/11/07 05:56:28;;;;;;;4.40;2.17;;;;;;;7.76;97.40;98288.53;4171505;28;20049;-73
2022/11/07 05:58:28;;;;;;;3.17;2.15;;;;;;;7.80;98.37;98286.66;4101012;28;20041;-72
2022/11/07 06:00:28;;;;;;;1.98;1.70;;;;;;;7.88;95.25;98291.13;4188294;28;20185;-72
2022/11/07 06:02:29;;;;;;;3.00;1.80;;;;;;;7.93;97.07;98292.78;4220541;28;20314;-73
2022/11/07 06:04:29;;;;;;;3.15;2.30;;;;;;;7.95;98.02;98286.94;4223148;27;20044;-72
2022/11/07 06:06:30;;;;;;;2.85;2.17;;;;;;;7.94;97.90;98290.81;4221646;28;20047;-72
2022/11/07 06:08:30;;;;;;;3.75;2.05;;;;;;;7.97;97.39;98295.63;4222137;28;20467;-73
2022/11/07 06:10:31;;;;;;;3.50;2.55;;;;;;;7.94;97.44;98296.34;4222398;28;20051;-72
2022/11/07 06:12:31;;;;;;;3.80;2.30;;;;;;;8.02;97.22;98303.56;4219826;28;20059;-73
2022/11/07 06:14:32;;;;;;;3.95;2.20;;;;;;;8.05;95.97;98313.88;4220963;28;20380;-73
2022/11/07 06:16:32;;;;;;;3.60;2.38;;;;;;;8.00;97.13;98306.69;4222058;28;20108;-72
2022/11/07 06:18:36;;;;;;;3.83;2.58;;;;;;;8.02;97.17;98309.09;4221900;28;20621;-72
2022/11/07 06:20:36;;;;;;;4.45;2.35;;;;;;;8.00;98.24;98308.66;4221676;28;20044;-72
2022/11/07 06:22:46;;;;;;;5.07;2.10;;;;;;;8.02;95.05;98315.38;4214419;27;20066;-73
2022/11/07 06:24:46;;;;;;;3.63;2.63;;;;;;;8.01;97.30;98313.00;4231813;27;20046;-72
2022/11/07 06:26:46;;;;;;;3.70;2.50;;;;;;;7.97;97.57;98312.16;4221153;28;20075;-72
2022/11/07 06:28:46;;;;;;;3.00;2.63;;;;;;;8.00;98.62;98311.41;4221726;28;20067;-73
2022/11/07 06:30:47;;;;;;;3.72;2.40;;;;;;;8.01;98.05;98307.50;4221564;28;20062;-72
2022/11/07 06:32:47;;;;;;;3.38;2.45;;;;;;;7.98;98.10;98303.50;4221013;28;20043;-72
2022/11/07 06:34:47;;;;;;;5.22;2.55;;;;;;;7.94;97.88;98301.84;4222005;27;20535;-73
2022/11/07 06:36:53;;;;;;;3.28;2.45;;;;;;;7.89;97.72;98305.72;4220996;28;20055;-73
2022/11/07 06:38:53;;;;;;;4.80;2.53;;;;;;;7.86;98.64;98303.66;4220491;28;20044;-73
2022/11/07 06:40:53;;;;;;;3.90;2.60;;;;;;;7.87;100.00;98303.31;4220756;28;20047;-73
2022/11/07 06:42:54;;;;;;;4.90;2.67;;;;;;;7.86;98.36;98315.50;4220310;28;20063;-73
2022/11/07 06:44:54;;;;;;;5.20;3.13;;;;;;;7.81;99.13;98310.28;4221677;28;20719;-72
2022/11/07 06:46:54;;;;;;;7.43;2.90;;;;;;;7.79;99.47;98312.59;4221375;28;20472;-72
2022/11/07 06:48:55;;;;;;;3.10;2.45;;;;;;;7.76;98.82;98304.25;4221668;28;20271;-72
2022/11/07 06:51:00;;;;;;;4.43;2.65;;;;;;;7.72;97.97;98303.41;4221219;28;20047;-72
2022/11/07 06:53:02;;;;;;;4.50;2.67;;;;;;;7.72;99.01;98309.72;4220794;28;20039;-72
2022/11/07 06:55:03;;;;;;;3.83;2.45;;;;;;;7.73;99.01;98308.53;4219986;28;20036;-73
2022/11/07 06:57:03;;;;;;;5.10;2.53;;;;;;;7.77;99.34;98311.34;4221728;28;20059;-73
2022/11/07 06:59:03;;;;;;;5.32;3.67;;;;;;;7.76;99.30;98321.56;4221437;28;20039;-73
2022/11/07 07:01:07;;;;;;;3.50;2.53;;;;;;;7.78;99.77;98318.47;4221306;28;20349;-72
2022/11/07 07:03:09;;;;;;;3.05;2.47;;;;;;;7.80;99.48;98325.22;4220766;27;20467;-73
2022/11/07 07:05:10;;;;;;;5.35;2.85;;;;;;;7.85;99.12;98326.88;4221822;28;20421;-73
2022/11/07 07:07:10;;;;;;;7.10;2.53;;;;;;;7.86;99.27;98334.78;4221098;28;20135;-73
2022/11/07 07:09:10;;;;;;;3.97;2.60;;;;;;;7.92;98.69;98329.75;4221066;28;20089;-73
2022/11/07 07:11:13;;;;;;;3.85;2.65;;;;;;;8.01;98.62;98335.03;4221512;28;20400;-73
2022/11/07 07:13:14;;;;;;;5.15;2.58;;;;;;;8.07;98.42;98344.63;4220378;28;20089;-72
2022/11/07 07:15:14;;;;;;;6.03;2.88;;;;;;;8.17;97.98;98346.78;4221048;28;20447;-72
2022/11/07 07:17:14;;;;;;;4.53;2.40;;;;;;;8.20;97.72;98346.06;4220832;28;20199;-73
2022/11/07 07:19:15;;;;;;;3.70;2.20;;;;;;;8.22;97.84;98346.47;4221344;28;20130;-73
2022/11/07 07:21:15;;;;;;;3.50;2.30;;;;;;;8.26;97.61;98347.31;4220746;28;20088;-73
2022/11/07 07:23:17;;;;;;;4.55;2.50;;;;;;;8.26;96.78;98346.53;4220512;28;20081;-73
2022/11/07 07:25:18;;;;;;;2.97;2.45;;;;;;;8.31;96.46;98349.78;4220719;28;20517;-73
2022/11/07 07:27:19;;;;;;;3.60;2.28;;;;;;;8.36;96.68;98349.53;4221042;28;20043;-73
2022/11/07 07:29:19;;;;;;;3.55;2.00;;;;;;;8.35;96.77;98342.41;4220402;28;20058;-72
2022/11/07 07:31:27;;;;;;;3.85;2.33;;;;;;;8.47;96.40;98351.69;4220568;28;20047;-72
2022/11/07 07:33:30;;;;;;;3.20;2.08;;;;;;;8.48;95.64;98354.06;4220365;28;20379;-73
2022/11/07 07:35:30;;;;;;;7.75;2.30;;;;;;;8.51;96.06;98341.50;4220968;28;20381;-73
2022/11/07 07:37:30;;;;;;;3.65;2.17;;;;;;;8.58;95.54;98345.19;4221257;27;20040;-73
2022/11/07 07:39:31;;;;;;;4.25;2.25;;;;;;;8.60;95.57;98355.84;4220544;28;20518;-73
2022/11/07 07:41:31;;;;;;;5.03;2.40;;;;;;;8.59;95.02;98354.25;4220847;28;20647;-73
2022/11/07 07:43:32;;;;;;;4.55;2.50;;;;;;;8.60;95.71;98353.88;4220305;28;20311;-73
2022/11/07 07:45:32;;;;;;;3.40;2.20;;;;;;;8.67;95.77;98348.47;4220503;28;20275;-73
2022/11/07 07:47:33;;;;;;;5.25;2.50;;;;;;;8.72;95.88;98355.66;4220321;28;20498;-72
2022/11/07 07:49:33;;;;;;;4.13;2.03;;;;;;;8.73;95.73;98346.22;4220720;28;20462;-73
2022/11/07 07:51:33;;;;;;;5.78;2.60;;;;;;;8.75;94.72;98340.31;4219284;28;20039;-73
2022/11/07 07:53:34;;;;;;;4.43;2.55;;;;;;;8.69;95.14;98337.91;4219227;28;20150;-73
2022/11/07 07:55:34;;;;;;;4.45;2.50;;;;;;;8.72;95.53;98339.91;4220346;28;20948;-73
2022/11/07 07:57:41;;;;;;;3.50;2.42;;;;;;;8.74;95.15;98345.03;4219530;28;20372;-73
2022/11/07 07:59:41;;;;;;;5.20;2.50;;;;;;;8.75;94.61;98337.56;4220023;28;20039;-73
2022/11/07 08:01:42;;;;;;;9.57;3.50;;;;;;;8.76;94.94;98337.19;4214527;28;20046;-73
2022/11/07 08:03:42;;;;;;;7.93;3.13;;;;;;;8.77;95.02;98327.78;4215692;27;20357;-73
2022/11/07 08:05:42;;;;;;;11.70;3.60;;;;;;;8.84;95.49;98322.34;4219660;28;20038;-73
2022/11/07 08:07:47;;;;;;;6.65;3.22;;;;;;;8.90;94.52;98329.16;4217566;28;20034;-73
2022/11/07 08:09:48;;;;;;;7.25;3.55;;;;;;;8.97;94.58;98334.78;4218829;28;20059;-73
2022/11/07 08:11:48;;;;;;;7.85;3.08;;;;;;;8.98;93.78;98332.81;4219275;28;20059;-73
2022/11/07 08:13:48;;;;;;;16.75;6.80;;;;;;;9.04;93.81;98344.34;4219124;28;20142;-73
2022/11/07 08:15:50;;;;;;;27.25;17.05;;;;;;;9.14;93.62;98338.97;4217126;28;20058;-73
2022/11/07 08:17:50;;;;;;;16.05;9.27;;;;;;;9.21;93.20;98335.53;4210869;28;20035;-73
2022/11/07 08:19:51;;;;;;;15.20;6.78;;;;;;;9.30;92.53;98330.53;4216981;28;20534;-73
2022/11/07 08:21:51;;;;;;;12.00;6.30;;;;;;;9.33;92.46;98329.78;4217736;28;20048;-73
2022/11/07 08:23:53;;;;;;;12.65;6.03;;;;;;;9.40;92.33;98337.38;4218427;28;20047;-72
2022/11/07 08:25:56;;;;;;;9.32;4.78;;;;;;;9.42;91.08;98337.78;4217219;28;20043;-72
2022/11/07 08:27:56;;;;;;;7.22;3.28;;;;;;;9.48;91.64;98333.53;4218276;28;20445;-73
2022/11/07 08:29:56;;;;;;;9.93;4.15;;;;;;;9.53;91.35;98338.75;4218077;28;20492;-73
2022/11/07 08:31:57;;;;;;;7.90;4.28;;;;;;;9.61;91.32;98334.13;4218496;28;20446;-73
2022/11/07 08:33:58;;;;;;;10.82;5.35;;;;;;;9.65;91.39;98349.53;4218809;28;20468;-73
2022/11/07 08:35:59;;;;;;;8.02;5.25;;;;;;;9.63;91.51;98340.84;4215625;27;20040;-73
2022/11/07 08:38:00;;;;;;;7.05;4.65;;;;;;;9.75;90.72;98339.81;4212950;28;20091;-73
2022/11/07 08:40:00;;;;;;;11.38;5.03;;;;;;;9.76;90.48;98353.25;4216253;28;20043;-73
2022/11/07 08:42:00;;;;;;;8.43;5.20;;;;;;;9.78;89.73;98350.13;4216980;28;20466;-73
2022/11/07 08:44:01;;;;;;;13.02;5.80;;;;;;;9.79;90.92;98360.78;4217820;28;20490;-73
2022/11/07 08:46:01;;;;;;;9.85;5.55;;;;;;;9.80;91.09;98354.09;4218687;28;20167;-73
2022/11/07 08:48:02;;;;;;;10.80;4.60;;;;;;;9.87;90.16;98350.63;4219222;28;20062;-72
2022/11/07 08:50:03;;;;;;;5.80;3.35;;;;;;;9.97;90.05;98358.25;4218533;28;20466;-73
2022/11/07 08:52:04;;;;;;;4.32;1.98;;;;;;;10.11;89.02;98352.09;4217293;28;20031;-73
2022/11/07 08:54:04;;;;;;;3.65;2.38;;;;;;;10.17;88.26;98352.53;4218035;28;20023;-73
2022/11/07 08:56:07;;;;;;;5.18;2.80;;;;;;;10.19;88.76;98347.44;4218025;28;20023;-73
2022/11/07 08:58:08;;;;;;;10.23;3.10;;;;;;;10.22;88.05;98353.03;4218494;28;20019;-73
2022/11/07 09:00:09;;;;;;;4.55;2.45;;;;;;;10.26;87.99;98344.75;4218941;28;20035;-73
2022/11/07 09:02:11;;;;;;;8.27;3.20;;;;;;;10.26;86.96;98340.03;4218596;28;20035;-73
2022/11/07 09:04:11;;;;;;;3.85;2.05;;;;;;;10.29;86.66;98344.00;4218197;28;20153;-73
2022/11/07 09:06:12;;;;;;;5.93;2.97;;;;;;;10.34;86.92;98349.19;4218492;28;20039;-73
2022/11/07 09:08:12;;;;;;;4.70;2.95;;;;;;;10.41;86.91;98346.50;4216178;28;20341;-73
2022/11/07 09:10:13;;;;;;;5.97;3.03;;;;;;;10.45;86.67;98338.25;4218464;28;20032;-73
2022/11/07 09:12:13;;;;;;;6.32;2.60;;;;;;;10.51;86.55;98343.06;4218159;28;20020;-73
2022/11/07 09:14:13;;;;;;;9.85;3.08;;;;;;;10.45;86.59;98336.28;4217186;28;20153;-73
2022/11/07 09:16:17;;;;;;;7.25;3.35;;;;;;;10.48;85.96;98327.19;4211950;28;20068;-73
2022/11/07 09:18:18;;;;;;;8.25;4.38;;;;;;;10.55;85.53;98341.09;4215800;28;20499;-73
2022/11/07 09:20:19;;;;;;;7.30;3.30;;;;;;;10.51;85.43;98337.53;4214932;28;20047;-73
2022/11/07 09:22:19;;;;;;;6.75;3.20;;;;;;;10.50;85.76;98340.66;4218268;28;20035;-73
2022/11/07 09:24:19;;;;;;;5.85;2.80;;;;;;;10.50;85.70;98346.19;4218224;28;20035;-73
2022/11/07 09:26:20;;;;;;;5.90;2.83;;;;;;;10.53;85.56;98353.75;4218299;28;20150;-72
2022/11/07 09:28:20;;;;;;;3.78;2.08;;;;;;;10.52;85.64;98350.19;4216045;28;20944;-73
2022/11/07 09:30:21;;;;;;;9.00;4.43;;;;;;;10.51;85.93;98348.59;4218718;28;20046;-73
2022/11/07 09:32:22;;;;;;;10.40;5.72;;;;;;;10.52;85.78;98355.72;4217943;28;20052;-73
2022/11/07 09:34:22;;;;;;;16.90;8.35;;;;;;;10.44;86.12;98339.44;4218126;28;20287;-73
2022/11/07 09:36:23;;;;;;;8.65;4.32;;;;;;;10.34;86.91;98346.41;4214776;28;20380;-73
2022/11/07 09:38:23;;;;;;;10.40;4.18;;;;;;;10.38;87.05;98344.50;4219881;27;20079;-73
2022/11/07 09:40:40;;;;;;;5.93;2.38;;;;;;;10.41;86.92;98360.31;4220305;28;20036;-73
2022/11/07 09:42:50;;;;;;;8.18;3.00;;;;;;;10.41;87.19;98360.31;4218453;28;20502;-73
2022/11/07 09:44:56;;;;;;;4.25;2.35;;;;;;;10.46;86.87;98365.53;4221338;28;20047;-73
2022/11/07 09:47:05;;;;;;;6.20;2.40;;;;;;;10.43;86.72;98358.00;4222007;28;20168;-73
2022/11/07 09:49:16;;;;;;;4.95;2.15;;;;;;;10.44;87.21;98361.56;4220875;28;20240;-73